sensor_id;sensor_type;location;lat;lon;timestamp;P1;P2;P0
76421;PMS5003;65254;52.354;13.614;2023-02-15T00:00:00;25;22;
76421;PMS5003;65254;52.354;13.614;2023-02-15T00:04:00;26;23;
76421;PMS5003;65254;52.354;13.614;2023-02-15T00:08:00;26;23;
76421;PMS5003;65254;52.354;13.614;2023-02-15T00:12:00;25;22;
76421;PMS5003;65254;52.354;13.614;2023-02-15T00:16:02;25;22;
76421;PMS5003;65254;52.354;13.614;2023-02-15T00:20:00;26;23;
76421;PMS5003;65254;52.354;13.614;2023-02-15T00:24:03;24;22;
76421;PMS5003;65254;52.354;13.614;2023-02-15T00:28:00;24;22;
76421;PMS5003;65254;52.354;13.614;2023-02-15T00:32:00;25;22;
76421;PMS5003;65254;52.354;13.614;2023-02-15T00:36:02;26;23;
76421;PMS5003;65254;52.354;13.614;2023-02-15T00:40:00;25;22;
76421;PMS5003;65254;52.354;13.614;2023-02-15T00:44:00;27;24;
76421;PMS5003;65254;52.354;13.614;2023-02-15T00:48:00;25;22;
76421;PMS5003;65254;52.354;13.614;2023-02-15T00:52:00;26;23;
76421;PMS5003;65254;52.354;13.614;2023-02-15T00:56:01;26;23;
76421;PMS5003;65254;52.354;13.614;2023-02-15T01:00:00;26;23;
76421;PMS5003;65254;52.354;13.614;2023-02-15T01:04:01;24;21;
76421;PMS5003;65254;52.354;13.614;2023-02-15T01:08:00;24;22;
76421;PMS5003;65254;52.354;13.614;2023-02-15T01:12:00;23;21;
76421;PMS5003;65254;52.354;13.614;2023-02-15T01:16:02;24;22;
76421;PMS5003;65254;52.354;13.614;2023-02-15T01:20:00;23;21;
76421;PMS5003;65254;52.354;13.614;2023-02-15T01:24:00;26;23;
76421;PMS5003;65254;52.354;13.614;2023-02-15T01:28:00;26;23;
76421;PMS5003;65254;52.354;13.614;2023-02-15T01:32:01;25;22;
76421;PMS5003;65254;52.354;13.614;2023-02-15T01:36:01;26;23;
76421;PMS5003;65254;52.354;13.614;2023-02-15T01:40:00;25;22;
76421;PMS5003;65254;52.354;13.614;2023-02-15T01:44:02;25;22;
76421;PMS5003;65254;52.354;13.614;2023-02-15T01:48:03;26;23;
76421;PMS5003;65254;52.354;13.614;2023-02-15T01:52:01;26;23;
76421;PMS5003;65254;52.354;13.614;2023-02-15T01:56:04;24;22;
76421;PMS5003;65254;52.354;13.614;2023-02-15T02:00:03;24;22;
76421;PMS5003;65254;52.354;13.614;2023-02-15T02:04:05;24;22;
76421;PMS5003;65254;52.354;13.614;2023-02-15T02:08:02;25;22;
76421;PMS5003;65254;52.354;13.614;2023-02-15T02:12:01;25;22;
76421;PMS5003;65254;52.354;13.614;2023-02-15T02:16:08;25;22;
76421;PMS5003;65254;52.354;13.614;2023-02-15T02:20:15;27;24;
76421;PMS5003;65254;52.354;13.614;2023-02-15T02:24:16;27;24;
76421;PMS5003;65254;52.354;13.614;2023-02-15T02:28:09;28;25;
76421;PMS5003;65254;52.354;13.614;2023-02-15T02:36:06;27;24;
76421;PMS5003;65254;52.354;13.614;2023-02-15T02:40:05;27;24;
76421;PMS5003;65254;52.354;13.614;2023-02-15T02:44:07;28;25;
76421;PMS5003;65254;52.354;13.614;2023-02-15T02:48:05;27;24;
76421;PMS5003;65254;52.354;13.614;2023-02-15T02:52:03;29;26;
76421;PMS5003;65254;52.354;13.614;2023-02-15T02:56:06;29;26;
76421;PMS5003;65254;52.354;13.614;2023-02-15T03:00:02;28;25;
76421;PMS5003;65254;52.354;13.614;2023-02-15T03:04:04;29;26;
76421;PMS5003;65254;52.354;13.614;2023-02-15T03:08:02;29;25;
76421;PMS5003;65254;52.354;13.614;2023-02-15T03:12:01;28;25;
76421;PMS5003;65254;52.354;13.614;2023-02-15T03:16:02;28;25;
76421;PMS5003;65254;52.354;13.614;2023-02-15T03:20:03;28;25;
76421;PMS5003;65254;52.354;13.614;2023-02-15T03:24:04;28;25;
76421;PMS5003;65254;52.354;13.614;2023-02-15T03:28:03;26;23;
76421;PMS5003;65254;52.354;13.614;2023-02-15T03:32:03;29;26;
76421;PMS5003;65254;52.354;13.614;2023-02-15T03:36:04;28;25;
76421;PMS5003;65254;52.354;13.614;2023-02-15T03:40:03;29;26;
76421;PMS5003;65254;52.354;13.614;2023-02-15T03:44:04;30;27;
76421;PMS5003;65254;52.354;13.614;2023-02-15T03:48:01;29;26;
76421;PMS5003;65254;52.354;13.614;2023-02-15T03:52:02;30;27;
76421;PMS5003;65254;52.354;13.614;2023-02-15T03:56:01;31;27;
76421;PMS5003;65254;52.354;13.614;2023-02-15T04:00:04;30;27;
76421;PMS5003;65254;52.354;13.614;2023-02-15T04:04:03;30;27;
76421;PMS5003;65254;52.354;13.614;2023-02-15T04:08:00;32;28;
76421;PMS5003;65254;52.354;13.614;2023-02-15T04:12:00;31;28;
76421;PMS5003;65254;52.354;13.614;2023-02-15T04:16:01;32;28;
76421;PMS5003;65254;52.354;13.614;2023-02-15T04:20:00;31;28;
76421;PMS5003;65254;52.354;13.614;2023-02-15T04:24:00;30;26;
76421;PMS5003;65254;52.354;13.614;2023-02-15T04:28:00;31;27;
76421;PMS5003;65254;52.354;13.614;2023-02-15T04:32:01;31;28;
76421;PMS5003;65254;52.354;13.614;2023-02-15T04:36:01;30;27;
76421;PMS5003;65254;52.354;13.614;2023-02-15T04:40:00;32;29;
76421;PMS5003;65254;52.354;13.614;2023-02-15T04:44:01;30;27;
76421;PMS5003;65254;52.354;13.614;2023-02-15T04:48:00;30;27;
76421;PMS5003;65254;52.354;13.614;2023-02-15T04:52:00;30;27;
76421;PMS5003;65254;52.354;13.614;2023-02-15T04:56:01;31;28;
76421;PMS5003;65254;52.354;13.614;2023-02-15T05:00:00;32;29;
76421;PMS5003;65254;52.354;13.614;2023-02-15T05:04:00;29;26;
76421;PMS5003;65254;52.354;13.614;2023-02-15T05:08:00;31;28;
76421;PMS5003;65254;52.354;13.614;2023-02-15T05:12:00;32;28;
76421;PMS5003;65254;52.354;13.614;2023-02-15T05:16:01;35;31;
76421;PMS5003;65254;52.354;13.614;2023-02-15T05:20:00;36;32;
76421;PMS5003;65254;52.354;13.614;2023-02-15T05:24:00;35;31;
76421;PMS5003;65254;52.354;13.614;2023-02-15T05:28:00;37;32;
76421;PMS5003;65254;52.354;13.614;2023-02-15T05:32:01;40;33;
76421;PMS5003;65254;52.354;13.614;2023-02-15T05:36:04;34;30;
76421;PMS5003;65254;52.354;13.614;2023-02-15T05:40:00;36;32;
76421;PMS5003;65254;52.354;13.614;2023-02-15T05:44:00;37;32;
76421;PMS5003;65254;52.354;13.614;2023-02-15T05:48:00;33;29;
76421;PMS5003;65254;52.354;13.614;2023-02-15T05:52:00;36;31;
76421;PMS5003;65254;52.354;13.614;2023-02-15T05:56:02;33;29;
76421;PMS5003;65254;52.354;13.614;2023-02-15T06:00:01;35;31;
76421;PMS5003;65254;52.354;13.614;2023-02-15T06:04:00;35;31;
76421;PMS5003;65254;52.354;13.614;2023-02-15T06:08:00;36;31;
76421;PMS5003;65254;52.354;13.614;2023-02-15T06:12:00;33;29;
76421;PMS5003;65254;52.354;13.614;2023-02-15T06:16:01;35;30;
76421;PMS5003;65254;52.354;13.614;2023-02-15T06:20:00;36;31;
76421;PMS5003;65254;52.354;13.614;2023-02-15T06:24:00;35;30;
76421;PMS5003;65254;52.354;13.614;2023-02-15T06:28:00;34;30;
76421;PMS5003;65254;52.354;13.614;2023-02-15T06:32:00;34;30;
76421;PMS5003;65254;52.354;13.614;2023-02-15T06:36:01;34;30;
76421;PMS5003;65254;52.354;13.614;2023-02-15T06:40:04;33;29;
76421;PMS5003;65254;52.354;13.614;2023-02-15T06:44:00;33;29;
76421;PMS5003;65254;52.354;13.614;2023-02-15T06:48:00;33;29;
76421;PMS5003;65254;52.354;13.614;2023-02-15T06:52:00;34;30;
76421;PMS5003;65254;52.354;13.614;2023-02-15T06:56:02;32;29;
76421;PMS5003;65254;52.354;13.614;2023-02-15T07:00:00;35;30;
76421;PMS5003;65254;52.354;13.614;2023-02-15T07:04:00;33;29;
76421;PMS5003;65254;52.354;13.614;2023-02-15T07:08:01;33;29;
76421;PMS5003;65254;52.354;13.614;2023-02-15T07:12:00;33;29;
76421;PMS5003;65254;52.354;13.614;2023-02-15T07:16:01;32;28;
76421;PMS5003;65254;52.354;13.614;2023-02-15T07:20:00;31;28;
76421;PMS5003;65254;52.354;13.614;2023-02-15T07:24:00;31;28;
76421;PMS5003;65254;52.354;13.614;2023-02-15T07:28:02;30;27;
76421;PMS5003;65254;52.354;13.614;2023-02-15T07:32:00;31;27;
76421;PMS5003;65254;52.354;13.614;2023-02-15T07:36:03;29;26;
76421;PMS5003;65254;52.354;13.614;2023-02-15T07:40:00;29;26;
76421;PMS5003;65254;52.354;13.614;2023-02-15T07:44:01;28;24;
76421;PMS5003;65254;52.354;13.614;2023-02-15T07:48:02;28;25;
76421;PMS5003;65254;52.354;13.614;2023-02-15T07:52:01;32;28;
76421;PMS5003;65254;52.354;13.614;2023-02-15T07:56:02;31;28;
76421;PMS5003;65254;52.354;13.614;2023-02-15T08:00:01;30;27;
76421;PMS5003;65254;52.354;13.614;2023-02-15T08:04:01;32;27;
76421;PMS5003;65254;52.354;13.614;2023-02-15T08:08:00;31;28;
76421;PMS5003;65254;52.354;13.614;2023-02-15T08:12:00;29;26;
76421;PMS5003;65254;52.354;13.614;2023-02-15T08:16:01;31;27;
76421;PMS5003;65254;52.354;13.614;2023-02-15T08:20:00;29;26;
76421;PMS5003;65254;52.354;13.614;2023-02-15T08:24:01;33;29;
76421;PMS5003;65254;52.354;13.614;2023-02-15T08:28:00;30;27;
76421;PMS5003;65254;52.354;13.614;2023-02-15T08:32:03;32;27;
76421;PMS5003;65254;52.354;13.614;2023-02-15T08:36:03;29;25;
76421;PMS5003;65254;52.354;13.614;2023-02-15T08:40:00;29;26;
76421;PMS5003;65254;52.354;13.614;2023-02-15T08:44:02;29;26;
76421;PMS5003;65254;52.354;13.614;2023-02-15T08:48:00;29;26;
76421;PMS5003;65254;52.354;13.614;2023-02-15T08:52:00;30;26;
76421;PMS5003;65254;52.354;13.614;2023-02-15T08:56:00;29;26;
76421;PMS5003;65254;52.354;13.614;2023-02-15T09:00:00;29;26;
76421;PMS5003;65254;52.354;13.614;2023-02-15T09:04:02;29;26;
76421;PMS5003;65254;52.354;13.614;2023-02-15T09:08:00;33;29;
76421;PMS5003;65254;52.354;13.614;2023-02-15T09:12:00;29;25;
76421;PMS5003;65254;52.354;13.614;2023-02-15T09:16:01;28;25;
76421;PMS5003;65254;52.354;13.614;2023-02-15T09:20:00;30;27;
76421;PMS5003;65254;52.354;13.614;2023-02-15T09:24:02;30;27;
76421;PMS5003;65254;52.354;13.614;2023-02-15T09:28:00;31;27;
76421;PMS5003;65254;52.354;13.614;2023-02-15T09:32:00;33;29;
76421;PMS5003;65254;52.354;13.614;2023-02-15T09:36:00;34;30;
76421;PMS5003;65254;52.354;13.614;2023-02-15T09:40:00;30;27;
76421;PMS5003;65254;52.354;13.614;2023-02-15T09:44:07;31;28;
76421;PMS5003;65254;52.354;13.614;2023-02-15T09:48:21;30;27;
76421;PMS5003;65254;52.354;13.614;2023-02-15T09:52:14;30;26;
76421;PMS5003;65254;52.354;13.614;2023-02-15T09:56:06;30;27;
76421;PMS5003;65254;52.354;13.614;2023-02-15T10:00:08;28;25;
76421;PMS5003;65254;52.354;13.614;2023-02-15T10:04:13;30;27;
76421;PMS5003;65254;52.354;13.614;2023-02-15T10:08:16;32;29;
76421;PMS5003;65254;52.354;13.614;2023-02-15T10:12:10;29;26;
76421;PMS5003;65254;52.354;13.614;2023-02-15T10:16:12;30;27;
76421;PMS5003;65254;52.354;13.614;2023-02-15T10:20:09;31;28;
76421;PMS5003;65254;52.354;13.614;2023-02-15T10:24:15;28;25;
76421;PMS5003;65254;52.354;13.614;2023-02-15T10:28:05;28;25;
76421;PMS5003;65254;52.354;13.614;2023-02-15T10:32:06;31;28;
76421;PMS5003;65254;52.354;13.614;2023-02-15T10:36:05;31;27;
76421;PMS5003;65254;52.354;13.614;2023-02-15T10:40:05;31;27;
76421;PMS5003;65254;52.354;13.614;2023-02-15T10:44:13;29;26;
76421;PMS5003;65254;52.354;13.614;2023-02-15T10:48:09;31;28;
76421;PMS5003;65254;52.354;13.614;2023-02-15T10:52:14;30;26;
76421;PMS5003;65254;52.354;13.614;2023-02-15T10:56:08;31;28;
76421;PMS5003;65254;52.354;13.614;2023-02-15T11:00:06;30;27;
76421;PMS5003;65254;52.354;13.614;2023-02-15T11:04:09;31;28;
76421;PMS5003;65254;52.354;13.614;2023-02-15T11:08:03;31;27;
76421;PMS5003;65254;52.354;13.614;2023-02-15T11:12:01;30;27;
76421;PMS5003;65254;52.354;13.614;2023-02-15T11:16:02;28;25;
76421;PMS5003;65254;52.354;13.614;2023-02-15T11:20:08;30;27;
76421;PMS5003;65254;52.354;13.614;2023-02-15T11:24:00;31;28;
76421;PMS5003;65254;52.354;13.614;2023-02-15T11:28:03;29;26;
76421;PMS5003;65254;52.354;13.614;2023-02-15T11:32:11;29;26;
76421;PMS5003;65254;52.354;13.614;2023-02-15T11:36:03;28;25;
76421;PMS5003;65254;52.354;13.614;2023-02-15T11:40:01;28;25;
76421;PMS5003;65254;52.354;13.614;2023-02-15T11:44:05;27;24;
76421;PMS5003;65254;52.354;13.614;2023-02-15T11:48:08;27;24;
76421;PMS5003;65254;52.354;13.614;2023-02-15T11:52:02;28;25;
76421;PMS5003;65254;52.354;13.614;2023-02-15T11:56:01;27;24;
76421;PMS5003;65254;52.354;13.614;2023-02-15T12:00:03;28;25;
76421;PMS5003;65254;52.354;13.614;2023-02-15T12:04:04;26;23;
76421;PMS5003;65254;52.354;13.614;2023-02-15T12:08:02;26;23;
76421;PMS5003;65254;52.354;13.614;2023-02-15T12:16:06;23;21;
76421;PMS5003;65254;52.354;13.614;2023-02-15T12:20:02;23;21;
76421;PMS5003;65254;52.354;13.614;2023-02-15T12:24:16;23;21;
76421;PMS5003;65254;52.354;13.614;2023-02-15T12:28:01;21;19;
76421;PMS5003;65254;52.354;13.614;2023-02-15T12:32:01;27;24;
76421;PMS5003;65254;52.354;13.614;2023-02-15T12:36:06;21;19;
76421;PMS5003;65254;52.354;13.614;2023-02-15T12:40:10;21;19;
76421;PMS5003;65254;52.354;13.614;2023-02-15T12:44:07;21;19;
76421;PMS5003;65254;52.354;13.614;2023-02-15T12:48:12;22;20;
76421;PMS5003;65254;52.354;13.614;2023-02-15T12:52:02;21;19;
76421;PMS5003;65254;52.354;13.614;2023-02-15T12:56:02;20;18;
76421;PMS5003;65254;52.354;13.614;2023-02-15T13:00:03;20;18;
76421;PMS5003;65254;52.354;13.614;2023-02-15T13:04:03;19;17;
76421;PMS5003;65254;52.354;13.614;2023-02-15T13:08:03;19;17;
76421;PMS5003;65254;52.354;13.614;2023-02-15T13:12:09;19;17;
76421;PMS5003;65254;52.354;13.614;2023-02-15T13:16:03;18;16;
76421;PMS5003;65254;52.354;13.614;2023-02-15T13:20:03;18;16;
76421;PMS5003;65254;52.354;13.614;2023-02-15T13:24:04;19;17;
76421;PMS5003;65254;52.354;13.614;2023-02-15T13:28:02;18;16;
76421;PMS5003;65254;52.354;13.614;2023-02-15T13:32:06;19;17;
76421;PMS5003;65254;52.354;13.614;2023-02-15T13:36:05;18;16;
76421;PMS5003;65254;52.354;13.614;2023-02-15T13:40:03;18;16;
76421;PMS5003;65254;52.354;13.614;2023-02-15T13:44:08;18;16;
76421;PMS5003;65254;52.354;13.614;2023-02-15T13:48:09;19;17;
76421;PMS5003;65254;52.354;13.614;2023-02-15T13:52:07;18;16;
76421;PMS5003;65254;52.354;13.614;2023-02-15T13:56:05;15;14;
76421;PMS5003;65254;52.354;13.614;2023-02-15T14:00:09;14;13;
76421;PMS5003;65254;52.354;13.614;2023-02-15T14:04:10;15;14;
76421;PMS5003;65254;52.354;13.614;2023-02-15T14:08:07;14;13;
76421;PMS5003;65254;52.354;13.614;2023-02-15T14:12:17;13;12;
76421;PMS5003;65254;52.354;13.614;2023-02-15T14:16:03;13;12;
76421;PMS5003;65254;52.354;13.614;2023-02-15T14:20:04;13;12;
76421;PMS5003;65254;52.354;13.614;2023-02-15T14:24:13;12;11;
76421;PMS5003;65254;52.354;13.614;2023-02-15T14:28:05;12;11;
76421;PMS5003;65254;52.354;13.614;2023-02-15T14:32:04;12;11;
76421;PMS5003;65254;52.354;13.614;2023-02-15T14:36:01;12;11;
76421;PMS5003;65254;52.354;13.614;2023-02-15T14:40:02;12;11;
76421;PMS5003;65254;52.354;13.614;2023-02-15T14:44:07;12;11;
76421;PMS5003;65254;52.354;13.614;2023-02-15T14:48:05;12;11;
76421;PMS5003;65254;52.354;13.614;2023-02-15T14:52:05;11;10;
76421;PMS5003;65254;52.354;13.614;2023-02-15T14:56:14;12;11;
76421;PMS5003;65254;52.354;13.614;2023-02-15T15:04:10;11;10;
76421;PMS5003;65254;52.354;13.614;2023-02-15T15:08:02;11;10;
76421;PMS5003;65254;52.354;13.614;2023-02-15T15:12:15;11;10;
76421;PMS5003;65254;52.354;13.614;2023-02-15T15:20:02;10;9;
76421;PMS5003;65254;52.354;13.614;2023-02-15T15:24:00;11;10;
76421;PMS5003;65254;52.354;13.614;2023-02-15T15:28:00;11;10;
76421;PMS5003;65254;52.354;13.614;2023-02-15T15:32:01;14;13;
76421;PMS5003;65254;52.354;13.614;2023-02-15T15:36:16;14;13;
76421;PMS5003;65254;52.354;13.614;2023-02-15T15:40:15;12;11;
76421;PMS5003;65254;52.354;13.614;2023-02-15T15:44:19;11;10;
76421;PMS5003;65254;52.354;13.614;2023-02-15T15:48:19;12;11;
76421;PMS5003;65254;52.354;13.614;2023-02-15T15:52:01;10;9;
76421;PMS5003;65254;52.354;13.614;2023-02-15T15:56:05;9;8;
76421;PMS5003;65254;52.354;13.614;2023-02-15T16:00:00;10;9;
76421;PMS5003;65254;52.354;13.614;2023-02-15T16:04:00;10;9;
76421;PMS5003;65254;52.354;13.614;2023-02-15T16:08:00;9;8;
76421;PMS5003;65254;52.354;13.614;2023-02-15T16:12:00;10;9;
76421;PMS5003;65254;52.354;13.614;2023-02-15T16:16:00;9;8;
76421;PMS5003;65254;52.354;13.614;2023-02-15T16:20:03;10;9;
76421;PMS5003;65254;52.354;13.614;2023-02-15T16:24:13;10;9;
76421;PMS5003;65254;52.354;13.614;2023-02-15T16:28:06;11;10;
76421;PMS5003;65254;52.354;13.614;2023-02-15T16:32:02;11;10;
76421;PMS5003;65254;52.354;13.614;2023-02-15T16:36:01;12;11;
76421;PMS5003;65254;52.354;13.614;2023-02-15T16:40:00;12;11;
76421;PMS5003;65254;52.354;13.614;2023-02-15T16:44:05;10;9;
76421;PMS5003;65254;52.354;13.614;2023-02-15T16:48:05;11;10;
76421;PMS5003;65254;52.354;13.614;2023-02-15T16:52:02;11;10;
76421;PMS5003;65254;52.354;13.614;2023-02-15T16:56:02;10;9;
76421;PMS5003;65254;52.354;13.614;2023-02-15T17:00:04;11;10;
76421;PMS5003;65254;52.354;13.614;2023-02-15T17:04:11;14;13;
76421;PMS5003;65254;52.354;13.614;2023-02-15T17:08:13;14;13;
76421;PMS5003;65254;52.354;13.614;2023-02-15T17:12:01;15;14;
76421;PMS5003;65254;52.354;13.614;2023-02-15T17:20:00;17;15;
76421;PMS5003;65254;52.354;13.614;2023-02-15T17:24:02;23;21;
76421;PMS5003;65254;52.354;13.614;2023-02-15T17:28:01;25;22;
76421;PMS5003;65254;52.354;13.614;2023-02-15T17:32:01;21;19;
76421;PMS5003;65254;52.354;13.614;2023-02-15T17:36:03;19;17;
76421;PMS5003;65254;52.354;13.614;2023-02-15T17:40:07;19;17;
76421;PMS5003;65254;52.354;13.614;2023-02-15T17:44:01;18;16;
76421;PMS5003;65254;52.354;13.614;2023-02-15T17:48:03;21;19;
76421;PMS5003;65254;52.354;13.614;2023-02-15T17:52:00;27;24;
76421;PMS5003;65254;52.354;13.614;2023-02-15T17:56:00;22;20;
76421;PMS5003;65254;52.354;13.614;2023-02-15T18:00:00;23;21;
76421;PMS5003;65254;52.354;13.614;2023-02-15T18:04:00;27;24;
76421;PMS5003;65254;52.354;13.614;2023-02-15T18:08:00;31;27;
76421;PMS5003;65254;52.354;13.614;2023-02-15T18:12:01;30;27;
76421;PMS5003;65254;52.354;13.614;2023-02-15T18:16:00;27;24;
76421;PMS5003;65254;52.354;13.614;2023-02-15T18:20:02;35;31;
76421;PMS5003;65254;52.354;13.614;2023-02-15T18:24:00;39;35;
76421;PMS5003;65254;52.354;13.614;2023-02-15T18:28:00;43;38;
76421;PMS5003;65254;52.354;13.614;2023-02-15T18:32:00;39;35;
76421;PMS5003;65254;52.354;13.614;2023-02-15T18:36:02;44;39;
76421;PMS5003;65254;52.354;13.614;2023-02-15T18:40:01;45;40;
76421;PMS5003;65254;52.354;13.614;2023-02-15T18:44:00;52;46;
76421;PMS5003;65254;52.354;13.614;2023-02-15T18:48:00;57;50;
76421;PMS5003;65254;52.354;13.614;2023-02-15T18:52:01;51;45;
76421;PMS5003;65254;52.354;13.614;2023-02-15T18:56:00;47;42;
76421;PMS5003;65254;52.354;13.614;2023-02-15T19:00:00;43;38;
76421;PMS5003;65254;52.354;13.614;2023-02-15T19:04:00;36;32;
76421;PMS5003;65254;52.354;13.614;2023-02-15T19:08:01;35;31;
76421;PMS5003;65254;52.354;13.614;2023-02-15T19:12:00;38;34;
76421;PMS5003;65254;52.354;13.614;2023-02-15T19:16:01;33;29;
76421;PMS5003;65254;52.354;13.614;2023-02-15T19:20:00;37;33;
76421;PMS5003;65254;52.354;13.614;2023-02-15T19:24:03;38;34;
76421;PMS5003;65254;52.354;13.614;2023-02-15T19:28:04;42;37;
76421;PMS5003;65254;52.354;13.614;2023-02-15T19:32:01;43;38;
76421;PMS5003;65254;52.354;13.614;2023-02-15T19:36:01;47;42;
76421;PMS5003;65254;52.354;13.614;2023-02-15T19:40:00;48;43;
76421;PMS5003;65254;52.354;13.614;2023-02-15T19:44:00;50;44;
76421;PMS5003;65254;52.354;13.614;2023-02-15T19:48:00;58;52;
76421;PMS5003;65254;52.354;13.614;2023-02-15T19:52:00;61;54;
76421;PMS5003;65254;52.354;13.614;2023-02-15T19:56:00;66;58;
76421;PMS5003;65254;52.354;13.614;2023-02-15T20:00:15;70;62;
76421;PMS5003;65254;52.354;13.614;2023-02-15T20:04:00;75;65;
76421;PMS5003;65254;52.354;13.614;2023-02-15T20:08:00;74;64;
76421;PMS5003;65254;52.354;13.614;2023-02-15T20:12:00;79;69;
76421;PMS5003;65254;52.354;13.614;2023-02-15T20:16:00;73;64;
76421;PMS5003;65254;52.354;13.614;2023-02-15T20:20:00;67;59;
76421;PMS5003;65254;52.354;13.614;2023-02-15T20:24:01;68;59;
76421;PMS5003;65254;52.354;13.614;2023-02-15T20:28:00;64;56;
76421;PMS5003;65254;52.354;13.614;2023-02-15T20:32:00;61;54;
76421;PMS5003;65254;52.354;13.614;2023-02-15T20:36:00;56;49;
76421;PMS5003;65254;52.354;13.614;2023-02-15T20:40:00;54;48;
76421;PMS5003;65254;52.354;13.614;2023-02-15T20:44:01;52;46;
76421;PMS5003;65254;52.354;13.614;2023-02-15T20:48:00;46;40;
76421;PMS5003;65254;52.354;13.614;2023-02-15T20:52:02;49;43;
76421;PMS5003;65254;52.354;13.614;2023-02-15T20:56:00;47;42;
76421;PMS5003;65254;52.354;13.614;2023-02-15T21:00:00;47;41;
76421;PMS5003;65254;52.354;13.614;2023-02-15T21:04:00;46;41;
76421;PMS5003;65254;52.354;13.614;2023-02-15T21:08:01;45;40;
76421;PMS5003;65254;52.354;13.614;2023-02-15T21:12:00;49;42;
76421;PMS5003;65254;52.354;13.614;2023-02-15T21:16:01;49;43;
76421;PMS5003;65254;52.354;13.614;2023-02-15T21:20:00;45;40;
76421;PMS5003;65254;52.354;13.614;2023-02-15T21:24:00;45;40;
76421;PMS5003;65254;52.354;13.614;2023-02-15T21:28:01;44;39;
76421;PMS5003;65254;52.354;13.614;2023-02-15T21:32:00;43;38;
76421;PMS5003;65254;52.354;13.614;2023-02-15T21:36:01;48;42;
76421;PMS5003;65254;52.354;13.614;2023-02-15T21:40:01;44;39;
76421;PMS5003;65254;52.354;13.614;2023-02-15T21:44:01;39;35;
76421;PMS5003;65254;52.354;13.614;2023-02-15T21:48:01;41;36;
76421;PMS5003;65254;52.354;13.614;2023-02-15T21:52:00;41;36;
76421;PMS5003;65254;52.354;13.614;2023-02-15T21:56:02;41;36;
76421;PMS5003;65254;52.354;13.614;2023-02-15T22:00:01;43;38;
76421;PMS5003;65254;52.354;13.614;2023-02-15T22:04:00;47;42;
76421;PMS5003;65254;52.354;13.614;2023-02-15T22:08:00;58;50;
76421;PMS5003;65254;52.354;13.614;2023-02-15T22:12:00;59;52;
76421;PMS5003;65254;52.354;13.614;2023-02-15T22:16:00;70;62;
76421;PMS5003;65254;52.354;13.614;2023-02-15T22:20:00;73;64;
76421;PMS5003;65254;52.354;13.614;2023-02-15T22:24:00;69;60;
76421;PMS5003;65254;52.354;13.614;2023-02-15T22:28:00;67;59;
76421;PMS5003;65254;52.354;13.614;2023-02-15T22:32:00;63;55;
76421;PMS5003;65254;52.354;13.614;2023-02-15T22:36:01;62;55;
76421;PMS5003;65254;52.354;13.614;2023-02-15T22:40:00;67;58;
76421;PMS5003;65254;52.354;13.614;2023-02-15T22:44:01;67;59;
76421;PMS5003;65254;52.354;13.614;2023-02-15T22:48:01;62;55;
76421;PMS5003;65254;52.354;13.614;2023-02-15T22:52:00;59;52;
76421;PMS5003;65254;52.354;13.614;2023-02-15T22:56:05;58;51;
76421;PMS5003;65254;52.354;13.614;2023-02-15T23:00:01;56;49;
76421;PMS5003;65254;52.354;13.614;2023-02-15T23:04:04;58;51;
76421;PMS5003;65254;52.354;13.614;2023-02-15T23:08:00;52;46;
76421;PMS5003;65254;52.354;13.614;2023-02-15T23:12:00;53;46;
76421;PMS5003;65254;52.354;13.614;2023-02-15T23:16:03;51;45;
76421;PMS5003;65254;52.354;13.614;2023-02-15T23:20:00;46;41;
76421;PMS5003;65254;52.354;13.614;2023-02-15T23:24:14;46;41;
76421;PMS5003;65254;52.354;13.614;2023-02-15T23:28:00;44;39;
76421;PMS5003;65254;52.354;13.614;2023-02-15T23:32:00;41;36;
76421;PMS5003;65254;52.354;13.614;2023-02-15T23:36:00;37;33;
76421;PMS5003;65254;52.354;13.614;2023-02-15T23:40:00;29;26;
76421;PMS5003;65254;52.354;13.614;2023-02-15T23:44:02;21;19;
76421;PMS5003;65254;52.354;13.614;2023-02-15T23:48:00;23;21;
76421;PMS5003;65254;52.354;13.614;2023-02-15T23:52:00;26;23;
76421;PMS5003;65254;52.354;13.614;2023-02-15T23:56:00;24;21;
